createdAt,value
2023-03-06T00:00:46.693Z,0.33
2023-03-06T00:03:16.242Z,0.31
2023-03-06T00:05:44.553Z,0.31
2023-03-06T00:08:12.834Z,0.28
2023-03-06T00:10:41.409Z,0.30
2023-03-06T00:13:12.196Z,0.25
2023-03-06T00:15:40.171Z,0.21
2023-03-06T00:18:08.501Z,0.16
2023-03-06T00:20:38.560Z,0.18
2023-03-06T00:23:06.699Z,0.16
2023-03-06T00:25:38.579Z,0.16
2023-03-06T00:28:06.762Z,0.18
2023-03-06T00:30:35.017Z,0.11
2023-03-06T00:33:03.217Z,0.10
2023-03-06T00:35:31.769Z,0.00
2023-03-06T00:38:01.327Z,-0.03
2023-03-06T00:40:29.376Z,-0.09
2023-03-06T00:42:57.459Z,-0.10
2023-03-06T00:45:25.522Z,-0.06
2023-03-06T00:47:53.574Z,-0.02
2023-03-06T00:50:21.666Z,-0.02
2023-03-06T00:52:49.700Z,-0.01
2023-03-06T00:55:19.234Z,-0.01
2023-03-06T00:57:47.337Z,-0.01
2023-03-06T01:00:15.729Z,-0.05
2023-03-06T01:02:43.945Z,-0.01
2023-03-06T01:05:14.597Z,-0.04
2023-03-06T01:07:42.730Z,-0.04
2023-03-06T01:10:11.698Z,-0.05
2023-03-06T01:12:42.032Z,-0.08
2023-03-06T01:15:10.651Z,-0.07
2023-03-06T01:17:38.600Z,-0.11
2023-03-06T01:20:07.203Z,-0.08
2023-03-06T01:22:35.295Z,-0.14
2023-03-06T01:25:03.352Z,-0.13
2023-03-06T01:27:31.369Z,-0.08
2023-03-06T01:30:00.734Z,-0.04
2023-03-06T01:32:28.876Z,-0.03
2023-03-06T01:34:57.029Z,-0.05
2023-03-06T01:37:25.172Z,-0.03
2023-03-06T01:39:53.221Z,-0.02
2023-03-06T01:42:21.347Z,-0.03
2023-03-06T01:45:05.606Z,-0.04
2023-03-06T01:47:35.788Z,-0.03
2023-03-06T01:50:05.132Z,-0.04
2023-03-06T01:52:34.721Z,-0.02
2023-03-06T01:55:04.022Z,-0.03
2023-03-06T01:57:33.969Z,-0.06
2023-03-06T02:00:05.707Z,-0.02
2023-03-06T02:02:43.425Z,-0.05
2023-03-06T02:05:12.196Z,-0.02
2023-03-06T02:07:41.330Z,-0.02
2023-03-06T02:10:10.157Z,-0.02
2023-03-06T02:12:38.733Z,-0.02
2023-03-06T02:15:08.745Z,-0.01
2023-03-06T02:17:37.444Z,0.02
2023-03-06T02:20:09.324Z,0.02
2023-03-06T02:22:41.399Z,0.03
2023-03-06T02:25:12.500Z,0.01
2023-03-06T02:27:42.299Z,-0.05
2023-03-06T02:30:11.198Z,-0.07
2023-03-06T02:32:39.283Z,-0.09
2023-03-06T02:35:07.952Z,-0.13
2023-03-06T02:37:36.015Z,-0.23
2023-03-06T02:40:09.380Z,-0.31
2023-03-06T02:42:37.487Z,-0.26
2023-03-06T02:45:11.150Z,-0.23
2023-03-06T02:47:39.146Z,-0.29
2023-03-06T02:50:07.439Z,-0.46
2023-03-06T02:52:35.389Z,-0.53
2023-03-06T02:55:03.690Z,-0.49
2023-03-06T02:57:31.768Z,-0.59
2023-03-06T03:00:00.462Z,-0.58
2023-03-06T03:02:29.990Z,-0.67
2023-03-06T03:04:59.387Z,-0.64
2023-03-06T03:07:27.970Z,-0.58
2023-03-06T03:09:56.141Z,-0.57
2023-03-06T03:12:24.590Z,-0.64
2023-03-06T03:14:52.648Z,-0.63
2023-03-06T03:17:20.895Z,-0.70
2023-03-06T03:19:50.412Z,-0.69
2023-03-06T03:22:19.500Z,-0.70
2023-03-06T03:24:47.706Z,-0.65
2023-03-06T03:27:16.123Z,-0.69
2023-03-06T03:29:44.222Z,-0.72
2023-03-06T03:32:12.311Z,-0.76
2023-03-06T03:34:42.877Z,-0.77
2023-03-06T03:37:12.298Z,-0.75
2023-03-06T03:39:43.037Z,-0.76
2023-03-06T03:42:11.782Z,-0.75
2023-03-06T03:44:39.932Z,-0.67
2023-03-06T03:47:08.380Z,-0.66
2023-03-06T03:49:37.373Z,-0.63
2023-03-06T03:52:06.398Z,-0.61
2023-03-06T03:54:37.744Z,-0.59
2023-03-06T03:57:06.370Z,-0.57
2023-03-06T03:59:37.931Z,-0.57
2023-03-06T04:02:21.893Z,-0.52
2023-03-06T04:05:05.177Z,-0.52
2023-03-06T04:07:33.583Z,-0.59
2023-03-06T04:10:03.120Z,-0.55
2023-03-06T04:12:32.268Z,-0.56
2023-03-06T04:15:00.666Z,-0.60
2023-03-06T04:17:30.523Z,-0.58
2023-03-06T04:19:58.625Z,-0.60
2023-03-06T04:22:27.016Z,-0.56
2023-03-06T04:24:55.419Z,-0.55
2023-03-06T04:27:24.915Z,-0.54
2023-03-06T04:29:56.295Z,-0.49
2023-03-06T04:32:25.072Z,-0.49
2023-03-06T04:34:53.176Z,-0.51
2023-03-06T04:37:22.568Z,-0.58
2023-03-06T04:39:51.152Z,-0.54
2023-03-06T04:42:19.460Z,-0.51
2023-03-06T04:44:48.920Z,-0.47
2023-03-06T04:47:19.060Z,-0.44
2023-03-06T04:49:47.583Z,-0.43
2023-03-06T04:52:15.611Z,-0.42
2023-03-06T04:54:44.064Z,-0.38
2023-03-06T04:57:13.053Z,-0.37
2023-03-06T04:59:41.049Z,-0.33
2023-03-06T05:02:10.485Z,-0.29
2023-03-06T05:04:38.655Z,-0.27
2023-03-06T05:07:06.827Z,-0.30
2023-03-06T05:09:34.962Z,-0.31
2023-03-06T05:12:03.070Z,-0.28
2023-03-06T05:14:31.527Z,-0.31
2023-03-06T05:16:59.530Z,-0.28
2023-03-06T05:19:28.978Z,-0.31
2023-03-06T05:21:57.029Z,-0.30
2023-03-06T05:24:25.149Z,-0.29
2023-03-06T05:26:53.225Z,-0.34
2023-03-06T05:29:21.370Z,-0.29
2023-03-06T05:31:49.562Z,-0.35
2023-03-06T05:34:18.145Z,-0.26
2023-03-06T05:36:47.716Z,-0.30
2023-03-06T05:39:15.810Z,-0.25
2023-03-06T05:41:43.878Z,-0.16
2023-03-06T05:44:11.929Z,-0.14
2023-03-06T05:46:40.058Z,-0.12
2023-03-06T05:49:08.116Z,-0.03
2023-03-06T05:51:36.444Z,0.04
2023-03-06T05:54:05.870Z,0.07
2023-03-06T05:56:33.975Z,0.09
2023-03-06T05:59:02.083Z,0.05
2023-03-06T06:01:30.452Z,0.02
2023-03-06T06:03:58.514Z,-0.07
2023-03-06T06:06:26.629Z,-0.07
2023-03-06T06:08:54.712Z,-0.10
2023-03-06T06:11:24.214Z,0.02
2023-03-06T06:13:52.397Z,0.11
2023-03-06T06:16:20.780Z,0.20
2023-03-06T06:18:48.856Z,0.23
2023-03-06T06:21:16.950Z,0.31
2023-03-06T06:23:45.071Z,0.35
2023-03-06T06:26:13.203Z,0.43
2023-03-06T06:28:42.767Z,0.54
2023-03-06T06:31:10.985Z,0.58
2023-03-06T06:33:39.125Z,0.59
2023-03-06T06:36:07.513Z,0.62
2023-03-06T06:38:35.659Z,0.61
2023-03-06T06:41:33.370Z,0.63
2023-03-06T06:43:54.137Z,0.60
2023-03-06T06:47:02.623Z,0.54
2023-03-06T06:49:10.760Z,0.33
2023-03-06T06:51:39.570Z,0.37
2023-03-06T06:54:07.761Z,0.43
2023-03-06T06:56:36.264Z,0.47
2023-03-06T06:59:16.105Z,0.53
2023-03-06T07:01:45.403Z,0.56
2023-03-06T07:04:13.690Z,0.48
2023-03-06T07:06:42.052Z,0.46
2023-03-06T07:09:10.436Z,0.51
2023-03-06T07:11:38.702Z,0.61
2023-03-06T07:14:08.171Z,0.56
2023-03-06T07:16:36.275Z,0.54
2023-03-06T07:19:04.446Z,0.65
2023-03-06T07:21:32.592Z,0.71
2023-03-06T07:24:00.841Z,0.77
2023-03-06T07:26:29.253Z,0.77
2023-03-06T07:28:57.285Z,0.85
2023-03-06T07:31:28.448Z,0.90
2023-03-06T07:33:56.651Z,0.95
2023-03-06T07:36:25.089Z,0.99
2023-03-06T07:38:53.154Z,0.92
2023-03-06T07:41:22.639Z,0.90
2023-03-06T07:43:51.381Z,0.86
2023-03-06T07:46:19.536Z,0.82
2023-03-06T07:48:49.008Z,0.79
2023-03-06T07:51:18.353Z,0.74
2023-03-06T07:53:46.584Z,0.70
2023-03-06T07:56:15.205Z,0.64
2023-03-06T07:58:43.999Z,0.65
2023-03-06T08:01:13.163Z,0.65
2023-03-06T08:03:41.435Z,0.52
2023-03-06T08:06:12.062Z,0.56
2023-03-06T08:08:40.979Z,0.52
2023-03-06T08:11:09.505Z,0.48
2023-03-06T08:13:38.355Z,0.52
2023-03-06T08:16:07.074Z,0.55
2023-03-06T08:18:35.522Z,0.59
2023-03-06T08:21:04.266Z,0.57
2023-03-06T08:23:34.337Z,0.63
2023-03-06T08:26:03.633Z,0.64
2023-03-06T08:28:31.869Z,0.69
2023-03-06T08:30:59.985Z,0.70
2023-03-06T08:33:28.256Z,0.78
2023-03-06T08:35:56.388Z,0.76
2023-03-06T08:38:24.534Z,0.73
2023-03-06T08:40:53.950Z,0.67
2023-03-06T08:43:22.068Z,0.75
2023-03-06T08:45:52.903Z,0.78
2023-03-06T08:48:21.104Z,0.81
2023-03-06T08:50:49.109Z,0.85
2023-03-06T08:53:17.149Z,0.91
2023-03-06T08:55:45.542Z,1.02
2023-03-06T08:58:15.030Z,1.09
2023-03-06T09:00:43.067Z,1.12
2023-03-06T09:03:11.526Z,1.10
2023-03-06T09:05:41.086Z,1.08
2023-03-06T09:08:09.178Z,1.11
2023-03-06T09:10:37.360Z,1.17
2023-03-06T09:13:05.479Z,1.18
2023-03-06T09:15:35.008Z,1.17
2023-03-06T09:18:03.030Z,1.04
2023-03-06T09:20:31.068Z,1.09
2023-03-06T09:22:59.076Z,1.21
2023-03-06T09:25:27.127Z,1.23
2023-03-06T09:28:10.101Z,1.23
2023-03-06T09:30:40.809Z,1.25
2023-03-06T09:33:09.231Z,1.32
2023-03-06T09:35:37.318Z,1.26
2023-03-06T09:38:05.404Z,1.29
2023-03-06T09:40:40.290Z,1.23
2023-03-06T09:43:09.783Z,1.30
2023-03-06T09:45:38.285Z,1.34
2023-03-06T09:48:11.664Z,1.29
2023-03-06T09:50:41.985Z,1.21
2023-03-06T09:53:16.526Z,1.20
2023-03-06T09:55:47.423Z,1.04
2023-03-06T09:58:17.897Z,1.06
2023-03-06T10:00:48.146Z,1.00
2023-03-06T10:03:22.207Z,1.04
2023-03-06T10:05:51.586Z,1.10
2023-03-06T10:08:23.453Z,1.09
2023-03-06T10:10:55.262Z,1.11
2023-03-06T10:13:28.069Z,1.29
2023-03-06T10:16:00.833Z,1.41
2023-03-06T10:18:30.312Z,1.35
2023-03-06T10:21:13.383Z,1.42
2023-03-06T10:23:51.819Z,1.41
2023-03-06T10:26:21.229Z,1.36
2023-03-06T10:28:54.100Z,1.29
2023-03-06T10:31:24.559Z,1.29
2023-03-06T10:33:56.797Z,1.35
2023-03-06T10:36:27.173Z,1.26
2023-03-06T10:38:55.939Z,1.27
2023-03-06T10:41:25.650Z,1.34
2023-03-06T10:44:12.996Z,1.55
2023-03-06T10:46:42.540Z,1.92
2023-03-06T10:49:24.372Z,2.34
2023-03-06T10:51:56.776Z,2.50
2023-03-06T10:54:24.909Z,2.47
2023-03-06T10:56:52.982Z,2.48
2023-03-06T10:59:23.045Z,2.42
2023-03-06T11:01:51.912Z,2.40
2023-03-06T11:04:26.019Z,2.28
2023-03-06T11:07:08.052Z,2.25
2023-03-06T11:09:36.507Z,2.16
2023-03-06T11:12:32.400Z,2.07
2023-03-06T11:15:10.808Z,1.97
2023-03-06T11:17:48.900Z,1.89
2023-03-06T11:20:19.716Z,1.95
2023-03-06T11:22:50.173Z,2.23
2023-03-06T11:25:19.998Z,2.41
2023-03-06T11:27:51.687Z,2.66
2023-03-06T11:30:22.171Z,2.93
2023-03-06T11:32:54.090Z,2.95
2023-03-06T11:35:24.994Z,3.04
2023-03-06T11:37:55.414Z,2.96
2023-03-06T11:40:25.944Z,3.10
2023-03-06T11:42:57.235Z,3.11
2023-03-06T11:45:31.994Z,3.38
2023-03-06T11:48:04.461Z,3.64
2023-03-06T11:50:36.096Z,3.92
2023-03-06T11:53:05.375Z,4.36
2023-03-06T11:55:40.502Z,4.74
2023-03-06T11:58:22.475Z,5.08
2023-03-06T12:00:54.434Z,5.23
2023-03-06T12:03:38.864Z,5.39
2023-03-06T12:06:12.365Z,5.24
2023-03-06T12:08:46.366Z,5.21
2023-03-06T12:11:18.759Z,5.09
2023-03-06T12:16:33.638Z,4.82
2023-03-06T12:19:09.569Z,4.69
2023-03-06T12:21:43.136Z,4.26
2023-03-06T12:24:17.116Z,4.04
2023-03-06T12:27:06.017Z,3.87
2023-03-06T12:29:50.519Z,3.69
2023-03-06T12:32:24.709Z,3.42
2023-03-06T12:35:06.150Z,3.13
2023-03-06T12:37:42.350Z,2.98
2023-03-06T12:40:21.652Z,2.79
2023-03-06T12:43:02.242Z,2.72
2023-03-06T12:45:33.870Z,2.64
